createdAt,value
2023-02-11T00:01:58.402Z,51.55
2023-02-11T00:04:29.090Z,58.15
2023-02-11T00:06:59.753Z,54.00
2023-02-11T00:09:31.857Z,52.40
2023-02-11T00:12:02.619Z,55.12
2023-02-11T00:14:33.287Z,52.73
2023-02-11T00:17:03.999Z,49.85
2023-02-11T00:19:34.763Z,49.10
2023-02-11T00:22:05.394Z,50.45
2023-02-11T00:24:36.522Z,53.87
2023-02-11T00:27:07.366Z,51.73
2023-02-11T00:29:39.108Z,52.17
2023-02-11T00:32:10.100Z,54.73
2023-02-11T00:34:41.370Z,56.13
2023-02-11T00:37:13.217Z,56.68
2023-02-11T00:39:44.172Z,51.20
2023-02-11T00:42:16.933Z,56.73
2023-02-11T00:44:48.339Z,55.40
2023-02-11T00:47:18.979Z,59.00
2023-02-11T00:49:49.799Z,52.48
2023-02-11T00:52:20.739Z,50.48
2023-02-11T00:54:51.937Z,51.77
2023-02-11T00:57:22.624Z,49.40
2023-02-11T00:59:53.500Z,57.03
2023-02-11T01:02:24.254Z,60.00
2023-02-11T01:04:55.218Z,54.93
2023-02-11T01:07:25.891Z,57.62
2023-02-11T01:09:57.014Z,59.55
2023-02-11T01:12:27.795Z,49.75
2023-02-11T01:14:59.148Z,59.63
2023-02-11T01:17:30.499Z,57.60
2023-02-11T01:20:01.565Z,65.12
2023-02-11T01:22:32.788Z,56.25
2023-02-11T01:25:04.015Z,59.23
2023-02-11T01:27:35.069Z,65.87
2023-02-11T01:30:07.773Z,57.05
2023-02-11T01:32:39.051Z,55.48
2023-02-11T01:35:10.886Z,57.03
2023-02-11T01:37:41.618Z,53.05
2023-02-11T01:40:15.366Z,52.40
2023-02-11T01:42:47.543Z,55.60
2023-02-11T01:45:43.751Z,52.73
2023-02-11T01:48:16.830Z,50.90
2023-02-11T01:50:50.126Z,53.35
2023-02-11T01:53:39.254Z,53.75
2023-02-11T01:56:28.619Z,52.15
2023-02-11T01:59:03.255Z,55.88
2023-02-11T02:01:36.986Z,57.98
2023-02-11T02:04:09.270Z,52.88
2023-02-11T02:06:48.855Z,57.30
2023-02-11T02:09:31.615Z,48.85
2023-02-11T02:12:05.277Z,58.23
2023-02-11T02:14:39.156Z,56.92
2023-02-11T02:17:10.996Z,56.10
2023-02-11T02:19:59.750Z,58.63
2023-02-11T02:22:51.277Z,63.28
2023-02-11T02:25:33.835Z,53.95
2023-02-11T02:28:22.348Z,52.58
2023-02-11T02:31:17.257Z,58.68
2023-02-11T02:33:59.880Z,54.58
2023-02-11T02:36:48.401Z,63.02
2023-02-11T02:39:25.074Z,59.13
2023-02-11T02:44:26.724Z,53.83
2023-02-11T02:46:57.850Z,50.45
2023-02-11T02:49:29.054Z,52.75
2023-02-11T02:52:25.310Z,57.60
2023-02-11T02:57:54.033Z,53.20
2023-02-11T03:00:31.166Z,57.70
2023-02-11T03:03:14.034Z,51.08
2023-02-11T03:05:59.469Z,54.65
2023-02-11T03:08:38.524Z,53.52
2023-02-11T03:11:14.814Z,49.05
2023-02-11T03:13:47.560Z,57.60
2023-02-11T03:16:24.167Z,48.17
2023-02-11T03:18:57.590Z,49.38
2023-02-11T03:21:29.446Z,46.33
2023-02-11T03:24:03.028Z,49.18
2023-02-11T03:26:51.077Z,52.33
2023-02-11T03:29:28.352Z,49.03
2023-02-11T03:32:19.710Z,47.55
2023-02-11T03:34:53.736Z,47.15
2023-02-11T03:37:36.038Z,41.53
2023-02-11T03:40:12.963Z,36.77
2023-02-11T03:42:58.303Z,39.23
2023-02-11T03:45:30.800Z,41.08
2023-02-11T03:48:10.354Z,44.73
2023-02-11T03:50:43.162Z,43.70
2023-02-11T03:53:17.863Z,35.10
2023-02-11T03:55:53.186Z,35.75
2023-02-11T03:58:24.383Z,38.25
2023-02-11T04:00:54.995Z,32.75
2023-02-11T04:03:25.672Z,34.90
2023-02-11T04:05:56.473Z,34.78
2023-02-11T04:08:27.593Z,33.53
2023-02-11T04:10:59.396Z,31.20
2023-02-11T04:13:32.505Z,31.27
2023-02-11T04:16:03.950Z,31.10
2023-02-11T04:18:35.305Z,35.43
2023-02-11T04:21:10.372Z,27.58
2023-02-11T04:23:41.559Z,31.62
2023-02-11T04:26:14.349Z,27.48
2023-02-11T04:28:50.208Z,33.88
2023-02-11T04:31:24.530Z,25.02
2023-02-11T04:33:57.062Z,28.60
2023-02-11T04:36:27.999Z,30.97
2023-02-11T04:38:59.284Z,28.30
2023-02-11T04:41:30.455Z,29.60
2023-02-11T04:44:01.710Z,28.50
2023-02-11T04:46:35.565Z,29.72
2023-02-11T04:49:07.807Z,33.53
2023-02-11T04:51:39.210Z,31.87
2023-02-11T04:54:10.178Z,29.80
2023-02-11T04:56:41.708Z,28.23
2023-02-11T04:59:13.786Z,29.80
2023-02-11T05:01:44.014Z,29.52
2023-02-11T05:04:14.074Z,28.50
2023-02-11T05:06:45.142Z,29.23
2023-02-11T05:09:16.349Z,33.58
2023-02-11T05:11:48.364Z,27.87
2023-02-11T05:14:32.469Z,29.27
2023-02-11T05:17:03.292Z,31.17
2023-02-11T05:19:34.962Z,27.82
2023-02-11T05:22:06.177Z,26.42
2023-02-11T05:24:37.553Z,25.20
2023-02-11T05:27:08.873Z,27.15
2023-02-11T05:29:40.308Z,28.95
2023-02-11T05:32:12.236Z,30.52
2023-02-11T05:34:42.936Z,25.48
2023-02-11T05:37:14.009Z,27.77
2023-02-11T05:39:45.227Z,27.60
2023-02-11T05:42:16.542Z,23.70
2023-02-11T05:44:51.454Z,27.82
2023-02-11T05:47:22.171Z,25.97
2023-02-11T05:49:54.522Z,25.90
2023-02-11T05:52:25.830Z,22.30
2023-02-11T05:54:56.492Z,22.82
2023-02-11T05:57:27.205Z,23.87
2023-02-11T05:59:57.968Z,23.20
2023-02-11T06:02:28.968Z,21.97
2023-02-11T06:04:59.625Z,25.05
2023-02-11T06:07:31.099Z,23.18
2023-02-11T06:10:01.894Z,26.35
2023-02-11T06:12:32.866Z,24.07
2023-02-11T06:15:03.566Z,22.10
2023-02-11T06:17:34.936Z,25.08
2023-02-11T06:20:09.646Z,24.02
2023-02-11T06:22:40.433Z,24.20
2023-02-11T06:25:12.373Z,24.98
2023-02-11T06:27:43.219Z,25.60
2023-02-11T06:30:15.035Z,26.75
2023-02-11T06:32:46.233Z,22.77
2023-02-11T06:35:18.075Z,24.77
2023-02-11T06:37:50.289Z,20.52
2023-02-11T06:40:21.126Z,22.95
2023-02-11T06:42:51.811Z,22.42
2023-02-11T06:45:22.626Z,21.73
2023-02-11T06:47:54.711Z,26.15
2023-02-11T06:50:25.526Z,21.12
2023-02-11T06:52:56.310Z,20.05
2023-02-11T06:55:28.904Z,21.05
2023-02-11T07:00:49.587Z,20.57
2023-02-11T07:03:20.472Z,22.35
2023-02-11T07:05:51.543Z,24.20
2023-02-11T07:08:22.390Z,22.05
2023-02-11T07:10:54.916Z,20.23
2023-02-11T07:13:25.579Z,18.70
2023-02-11T07:15:56.271Z,18.90
2023-02-11T07:18:27.025Z,20.90
2023-02-11T07:20:57.732Z,21.15
2023-02-11T07:23:28.460Z,24.90
2023-02-11T07:25:59.264Z,25.88
2023-02-11T07:28:29.916Z,22.05
2023-02-11T07:31:01.208Z,21.70
2023-02-11T07:33:32.000Z,17.65
2023-02-11T07:36:04.054Z,16.25
2023-02-11T07:38:35.747Z,16.23
2023-02-11T07:41:14.993Z,32.65
2023-02-11T07:43:46.824Z,17.30
2023-02-11T07:46:23.063Z,15.93
2023-02-11T07:51:26.139Z,17.77
2023-02-11T07:53:57.971Z,18.40
2023-02-11T07:56:43.234Z,16.75
2023-02-11T08:02:06.124Z,22.58
2023-02-11T08:04:36.755Z,15.50
2023-02-11T08:07:07.935Z,14.83
2023-02-11T08:09:38.693Z,15.63
2023-02-11T08:12:09.560Z,15.85
2023-02-11T08:14:44.549Z,15.43
2023-02-11T08:17:15.313Z,17.67
2023-02-11T08:19:46.343Z,14.95
2023-02-11T08:22:17.442Z,14.58
2023-02-11T08:25:08.605Z,17.92
2023-02-11T08:27:39.871Z,16.20
2023-02-11T08:30:11.606Z,18.00
2023-02-11T08:32:42.766Z,24.15
2023-02-11T08:35:14.032Z,17.75
2023-02-11T08:37:44.920Z,15.28
2023-02-11T08:40:15.713Z,18.40
2023-02-11T08:42:46.461Z,15.55
2023-02-11T08:45:17.821Z,15.28
2023-02-11T08:47:49.201Z,22.17
2023-02-11T08:50:20.704Z,17.45
2023-02-11T08:52:52.963Z,14.90
2023-02-11T08:55:23.656Z,19.15
2023-02-11T08:57:54.926Z,36.17
2023-02-11T09:00:26.145Z,14.33
2023-02-11T09:05:58.392Z,15.53
2023-02-11T09:08:29.742Z,15.98
2023-02-11T09:11:01.928Z,15.30
2023-02-11T09:13:34.025Z,21.42
2023-02-11T09:16:06.603Z,34.48
2023-02-11T09:18:37.388Z,22.42
2023-02-11T09:21:09.867Z,18.35
2023-02-11T09:23:43.296Z,14.65
2023-02-11T09:26:16.599Z,28.23
2023-02-11T09:28:48.088Z,17.25
2023-02-11T09:31:21.483Z,17.42
2023-02-11T09:33:55.086Z,18.15
2023-02-11T09:36:28.298Z,14.58
2023-02-11T09:39:02.189Z,16.32
2023-02-11T09:41:47.311Z,17.52
2023-02-11T09:44:26.236Z,16.93
2023-02-11T09:47:00.093Z,24.75
2023-02-11T09:49:50.245Z,24.15
2023-02-11T09:52:45.808Z,18.77
2023-02-11T09:55:31.077Z,14.90
2023-02-11T09:58:03.413Z,13.70
2023-02-11T10:00:49.238Z,20.30
2023-02-11T10:06:11.910Z,31.50
2023-02-11T10:09:01.984Z,20.60
2023-02-11T10:11:36.915Z,19.77
2023-02-11T10:14:46.447Z,15.63
2023-02-11T10:17:43.392Z,18.15
2023-02-11T10:20:32.539Z,18.12
2023-02-11T10:23:14.919Z,17.55
2023-02-11T10:25:51.852Z,16.02
2023-02-11T10:28:26.016Z,26.17
2023-02-11T10:31:12.279Z,27.82
2023-02-11T10:33:48.585Z,19.25
2023-02-11T10:36:20.933Z,18.12
2023-02-11T10:38:51.818Z,15.75
2023-02-11T10:41:37.919Z,17.37
2023-02-11T10:44:09.926Z,15.78
2023-02-11T10:46:42.615Z,13.32
2023-02-11T10:49:16.128Z,13.75
2023-02-11T10:51:47.629Z,18.98
2023-02-11T10:54:22.462Z,21.77
2023-02-11T10:56:56.013Z,20.40
2023-02-11T10:59:32.509Z,16.20
2023-02-11T11:02:11.601Z,16.60
2023-02-11T11:04:52.365Z,14.63
2023-02-11T11:07:25.833Z,19.27
2023-02-11T11:10:00.425Z,15.05
2023-02-11T11:12:49.698Z,18.07
2023-02-11T11:15:26.544Z,20.35
2023-02-11T11:18:24.067Z,18.98
2023-02-11T11:21:09.667Z,19.73
2023-02-11T11:23:41.212Z,19.75
2023-02-11T11:26:14.449Z,17.27
2023-02-11T11:28:57.112Z,21.85
2023-02-11T11:31:39.097Z,25.50
2023-02-11T11:34:27.332Z,18.98
2023-02-11T11:36:59.265Z,17.60
2023-02-11T11:39:35.490Z,24.18
2023-02-11T11:42:08.763Z,18.82
2023-02-11T11:44:41.155Z,17.02
2023-02-11T11:47:17.994Z,23.47
2023-02-11T11:50:06.590Z,19.32
2023-02-11T11:52:40.057Z,23.25
2023-02-11T11:55:23.113Z,20.65
2023-02-11T11:57:54.055Z,19.00
2023-02-11T12:00:39.147Z,20.00
2023-02-11T12:03:27.399Z,21.50
2023-02-11T12:06:21.571Z,21.77
2023-02-11T12:09:00.458Z,20.32
2023-02-11T12:11:45.749Z,19.85
2023-02-11T12:14:27.827Z,26.53
2023-02-11T12:17:13.299Z,21.25
2023-02-11T12:20:19.281Z,20.90
2023-02-11T12:23:14.867Z,22.07
2023-02-11T12:25:58.968Z,25.45
2023-02-11T12:28:32.230Z,24.37
2023-02-11T12:31:21.898Z,29.27
2023-02-11T12:34:07.231Z,20.05
2023-02-11T12:36:46.414Z,28.73
2023-02-11T12:39:38.563Z,26.62
2023-02-11T12:42:56.614Z,28.90
2023-02-11T12:45:56.214Z,27.20
2023-02-11T12:48:48.807Z,22.20
2023-02-11T12:51:40.616Z,23.02
2023-02-11T12:54:16.575Z,23.40
2023-02-11T12:56:52.592Z,24.52
2023-02-11T12:59:28.381Z,26.60
2023-02-11T13:02:00.583Z,29.77
2023-02-11T13:04:40.006Z,26.12
2023-02-11T13:07:25.141Z,29.60
2023-02-11T13:10:03.173Z,26.62
2023-02-11T13:12:53.537Z,25.20
2023-02-11T13:15:25.088Z,26.33
2023-02-11T13:18:04.206Z,29.10
2023-02-11T13:20:52.343Z,26.55
2023-02-11T13:23:37.448Z,27.42
2023-02-11T13:26:26.911Z,31.45
2023-02-11T13:29:08.991Z,26.33
2023-02-11T13:31:39.898Z,26.70
2023-02-11T13:34:29.970Z,26.50
2023-02-11T13:37:00.808Z,24.75
2023-02-11T13:39:31.482Z,24.00
2023-02-11T13:42:06.346Z,23.10
2023-02-11T13:44:37.668Z,27.02
2023-02-11T13:47:09.116Z,24.02
2023-02-11T13:49:44.313Z,24.27
2023-02-11T13:52:33.113Z,22.27
2023-02-11T13:55:09.443Z,22.70
2023-02-11T13:57:41.418Z,27.67
2023-02-11T14:00:37.504Z,21.02
2023-02-11T14:03:34.097Z,23.52
2023-02-11T14:06:33.830Z,23.32
2023-02-11T14:09:12.972Z,20.08
2023-02-11T14:11:51.761Z,24.57
2023-02-11T14:14:25.284Z,26.17
2023-02-11T14:17:10.519Z,24.50
2023-02-11T14:19:46.193Z,24.57
2023-02-11T14:22:22.074Z,26.13
2023-02-11T14:25:01.106Z,23.65
2023-02-11T14:27:49.970Z,22.50
2023-02-11T14:30:39.842Z,22.65
2023-02-11T14:33:34.325Z,24.47
2023-02-11T14:36:16.480Z,23.80
2023-02-11T14:39:01.428Z,21.30
2023-02-11T14:41:40.739Z,23.35
2023-02-11T14:44:20.200Z,23.42
2023-02-11T14:46:54.416Z,21.82
2023-02-11T14:49:40.393Z,24.85
2023-02-11T14:52:19.543Z,21.68
2023-02-11T14:54:52.567Z,20.68
2023-02-11T14:57:23.826Z,26.73
2023-02-11T15:00:06.833Z,26.33
2023-02-11T15:02:41.628Z,20.62
2023-02-11T15:05:24.825Z,20.90
2023-02-11T15:07:58.406Z,22.60
2023-02-11T15:10:37.554Z,23.05
2023-02-11T15:13:08.447Z,20.00
2023-02-11T15:15:41.908Z,21.70
2023-02-11T15:18:15.293Z,24.30
2023-02-11T15:20:46.194Z,23.57
2023-02-11T15:23:20.879Z,24.57
2023-02-11T15:25:55.891Z,25.27
2023-02-11T15:28:35.207Z,25.02
2023-02-11T15:31:17.431Z,25.65
2023-02-11T15:33:48.333Z,25.80
2023-02-11T15:36:21.493Z,27.90
2023-02-11T15:39:11.248Z,25.27
2023-02-11T15:41:42.023Z,24.23
2023-02-11T15:44:29.714Z,27.45
2023-02-11T15:47:00.988Z,25.72
2023-02-11T15:49:31.850Z,33.63
2023-02-11T15:52:02.527Z,23.35
2023-02-11T15:54:33.586Z,30.72
2023-02-11T15:57:09.839Z,23.30
2023-02-11T15:59:42.792Z,34.10
2023-02-11T16:02:25.020Z,33.10
2023-02-11T16:04:58.620Z,33.33
2023-02-11T16:07:51.644Z,29.25
2023-02-11T16:10:34.730Z,33.80
2023-02-11T16:13:08.121Z,35.08
2023-02-11T16:15:47.317Z,34.13
2023-02-11T16:18:31.055Z,34.85
2023-02-11T16:20:55.248Z,38.58
2023-02-11T16:23:31.409Z,33.18
2023-02-11T16:26:06.045Z,42.30
2023-02-11T16:28:38.058Z,38.88
2023-02-11T16:31:10.897Z,41.00
2023-02-11T16:33:41.773Z,47.17
2023-02-11T16:36:18.827Z,46.85
2023-02-11T16:38:49.515Z,42.35
2023-02-11T16:41:20.162Z,52.27
2023-02-11T16:43:50.815Z,49.90
2023-02-11T16:46:21.613Z,45.63
2023-02-11T16:48:52.433Z,46.02
2023-02-11T16:51:23.356Z,47.73
2023-02-11T16:53:54.005Z,48.13
2023-02-11T16:56:24.660Z,43.00
2023-02-11T16:58:55.313Z,47.38
2023-02-11T17:01:26.135Z,48.35
2023-02-11T17:03:56.940Z,42.95
2023-02-11T17:06:27.792Z,43.55
2023-02-11T17:08:58.532Z,44.53
2023-02-11T17:11:29.209Z,39.70
2023-02-11T17:13:59.845Z,38.23
2023-02-11T17:16:31.069Z,36.88
2023-02-11T17:19:01.749Z,39.18
2023-02-11T17:21:33.106Z,36.45
2023-02-11T17:24:03.791Z,33.83
2023-02-11T17:26:35.811Z,39.55
2023-02-11T17:29:10.427Z,39.95
2023-02-11T17:31:42.927Z,39.15
2023-02-11T17:34:14.174Z,43.00
2023-02-11T17:36:44.921Z,40.17
2023-02-11T17:39:15.861Z,42.10
2023-02-11T17:41:46.529Z,45.25
2023-02-11T17:44:17.777Z,39.85
2023-02-11T17:46:48.470Z,40.20
2023-02-11T17:49:19.212Z,33.90
2023-02-11T17:51:49.855Z,38.85
2023-02-11T17:54:21.600Z,35.50
2023-02-11T17:56:52.256Z,39.40
2023-02-11T17:59:23.475Z,34.13
2023-02-11T18:01:54.156Z,34.95
2023-02-11T18:04:24.812Z,34.90
2023-02-11T18:06:55.624Z,35.90
2023-02-11T18:09:27.422Z,39.67
2023-02-11T18:11:59.506Z,34.35
2023-02-11T18:14:30.123Z,36.63
2023-02-11T18:17:00.775Z,32.35
2023-02-11T18:19:33.131Z,35.92
2023-02-11T18:22:05.428Z,36.80
2023-02-11T18:24:36.052Z,33.70
2023-02-11T18:27:06.909Z,40.35
2023-02-11T18:29:38.063Z,35.68
2023-02-11T18:32:08.983Z,36.80
2023-02-11T18:34:41.107Z,39.92
2023-02-11T18:37:12.699Z,37.17
2023-02-11T18:39:43.537Z,37.60
2023-02-11T18:42:14.205Z,38.73
2023-02-11T18:44:45.212Z,35.43
2023-02-11T18:47:15.854Z,36.40
2023-02-11T18:49:46.650Z,42.23
2023-02-11T18:52:17.428Z,37.25
2023-02-11T18:54:48.446Z,42.13
2023-02-11T18:57:19.109Z,36.73
2023-02-11T18:59:50.179Z,38.38
2023-02-11T19:02:21.470Z,40.40
2023-02-11T19:04:52.307Z,37.13
2023-02-11T19:07:22.981Z,37.20
2023-02-11T19:09:53.960Z,39.18
2023-02-11T19:12:24.590Z,40.05
2023-02-11T19:14:55.341Z,43.02
2023-02-11T19:17:25.972Z,45.92
2023-02-11T19:19:56.719Z,48.87
2023-02-11T19:22:27.544Z,42.78
2023-02-11T19:24:58.216Z,37.55
2023-02-11T19:27:29.284Z,48.13
2023-02-11T19:29:59.951Z,41.33
2023-02-11T19:32:30.991Z,41.45
2023-02-11T19:35:01.726Z,40.83
2023-02-11T19:37:32.447Z,38.80
2023-02-11T19:40:03.301Z,42.95
2023-02-11T19:42:33.953Z,40.23
2023-02-11T19:45:04.663Z,37.13
2023-02-11T19:47:35.505Z,46.63
2023-02-11T19:50:07.609Z,43.38
2023-02-11T19:52:42.505Z,38.23
2023-02-11T19:55:13.244Z,38.70
2023-02-11T19:57:43.908Z,39.67
2023-02-11T20:00:15.544Z,40.23
2023-02-11T20:02:47.642Z,41.50
2023-02-11T20:05:18.584Z,43.05
2023-02-11T20:07:49.261Z,44.65
2023-02-11T20:10:20.343Z,38.48
2023-02-11T20:12:51.447Z,38.75
2023-02-11T20:15:22.228Z,40.20
2023-02-11T20:18:04.795Z,44.70
2023-02-11T20:20:35.832Z,37.13
2023-02-11T20:23:06.466Z,38.75
2023-02-11T20:25:38.364Z,41.90
2023-02-11T20:28:09.119Z,37.10
2023-02-11T20:30:40.570Z,37.67
2023-02-11T20:33:11.366Z,41.88
2023-02-11T20:35:42.013Z,43.48
2023-02-11T20:38:12.674Z,42.15
2023-02-11T20:40:44.789Z,41.30
2023-02-11T20:43:15.428Z,43.13
2023-02-11T20:45:46.072Z,43.85
2023-02-11T20:48:17.123Z,44.27
2023-02-11T20:50:48.430Z,46.73
2023-02-11T20:53:19.146Z,41.33
2023-02-11T20:55:50.026Z,42.33
2023-02-11T20:58:20.835Z,43.33
2023-02-11T21:00:51.497Z,43.80
2023-02-11T21:03:22.289Z,43.63
2023-02-11T21:05:53.367Z,42.38
2023-02-11T21:08:24.281Z,47.60
2023-02-11T21:10:54.957Z,43.45
2023-02-11T21:13:25.592Z,43.20
2023-02-11T21:15:59.480Z,43.83
2023-02-11T21:18:30.223Z,45.25
2023-02-11T21:21:01.266Z,44.58
2023-02-11T21:23:32.105Z,43.98
2023-02-11T21:26:02.801Z,45.20
2023-02-11T21:28:33.543Z,48.23
2023-02-11T21:31:04.692Z,43.65
2023-02-11T21:33:35.928Z,50.92
2023-02-11T21:36:09.012Z,47.45
2023-02-11T21:38:40.128Z,47.60
2023-02-11T21:41:11.503Z,44.85
2023-02-11T21:43:42.179Z,49.23
2023-02-11T21:46:15.472Z,43.28
2023-02-11T21:48:46.173Z,42.85
2023-02-11T21:51:18.974Z,47.20
2023-02-11T21:53:49.859Z,41.85
2023-02-11T21:56:21.417Z,41.10
2023-02-11T21:58:54.532Z,40.30
2023-02-11T22:01:30.448Z,42.05
2023-02-11T22:04:01.285Z,43.93
2023-02-11T22:06:33.638Z,47.08
2023-02-11T22:09:12.317Z,46.60
2023-02-11T22:11:43.002Z,48.30
2023-02-11T22:14:13.638Z,46.25
2023-02-11T22:16:45.588Z,49.48
2023-02-11T22:19:16.400Z,48.00
2023-02-11T22:21:47.116Z,47.83
2023-02-11T22:24:17.775Z,43.42
2023-02-11T22:26:48.447Z,46.55
2023-02-11T22:29:19.071Z,46.40
2023-02-11T22:31:49.766Z,44.48
2023-02-11T22:34:20.702Z,39.67
2023-02-11T22:36:51.363Z,42.43
2023-02-11T22:39:22.006Z,42.98
2023-02-11T22:41:53.123Z,42.48
2023-02-11T22:44:23.787Z,44.53
2023-02-11T22:46:55.726Z,42.43
2023-02-11T22:49:26.398Z,44.15
2023-02-11T22:51:57.367Z,49.33
2023-02-11T22:54:28.135Z,48.45
2023-02-11T22:56:58.799Z,49.77
2023-02-11T22:59:29.454Z,45.35
2023-02-11T23:02:00.209Z,49.73
2023-02-11T23:04:31.039Z,49.10
2023-02-11T23:07:01.697Z,49.60
2023-02-11T23:09:32.890Z,46.50
2023-02-11T23:12:03.554Z,48.60
2023-02-11T23:14:34.455Z,43.48
2023-02-11T23:17:05.083Z,51.37
2023-02-11T23:19:35.699Z,45.48
2023-02-11T23:22:06.587Z,49.33
2023-02-11T23:24:37.259Z,45.45
2023-02-11T23:27:07.964Z,45.28
2023-02-11T23:29:38.568Z,45.52
2023-02-11T23:32:09.342Z,44.90
2023-02-11T23:34:40.087Z,52.67
2023-02-11T23:37:10.794Z,51.92
2023-02-11T23:39:41.465Z,45.23
2023-02-11T23:42:13.181Z,45.38
2023-02-11T23:44:43.819Z,50.78
2023-02-11T23:47:14.474Z,48.23
2023-02-11T23:49:45.126Z,50.60
2023-02-11T23:52:15.847Z,51.90
2023-02-11T23:54:47.835Z,47.93
2023-02-11T23:57:19.054Z,43.87
2023-02-11T23:59:51.440Z,47.30
